Time;durP1;ratioP1;P1;durP2;ratioP2;P2;SDS_P1;SDS_P2;PMS_P1;PMS_P2;Temp;Humidity;BMP_temperature;BMP_pressure;BME280_temperature;BME280_humidity;BME280_pressure;Samples;Min_cycle;Max_cycle;Signal;HPM_P1;HPM_P2
2022/09/24 00:01:19;;;;;;;22.23;12.35;;;;;;;13.01;67.14;98867.25;5175553;28;20050;-69
2022/09/24 00:04:11;;;;;;;20.00;12.73;;;;;;;12.97;68.24;98858.75;5173057;28;20046;-68
2022/09/24 00:07:01;;;;;;;21.23;13.25;;;;;;;12.80;69.01;98846.41;5162492;28;20062;-69
2022/09/24 00:09:51;;;;;;;18.77;12.98;;;;;;;13.01;67.91;98857.44;5179130;28;20099;-69
2022/09/24 00:12:41;;;;;;;22.80;13.02;;;;;;;12.93;67.90;98836.97;5162177;28;20045;-69
2022/09/24 00:15:36;;;;;;;25.08;13.73;;;;;;;13.14;68.05;98846.31;5187356;28;20058;-69
2022/09/24 00:18:28;;;;;;;25.40;12.77;;;;;;;13.21;68.70;98841.16;5163337;28;20174;-68
2022/09/24 00:21:24;;;;;;;20.50;13.05;;;;;;;13.35;68.31;98832.59;5162309;28;20061;-68
2022/09/24 00:27:26;;;;;;;18.23;12.32;;;;;;;13.38;68.25;98825.09;5183408;28;20183;-69
2022/09/24 00:30:16;;;;;;;22.90;12.77;;;;;;;13.40;68.14;98836.41;5150785;28;20129;-69
2022/09/24 00:33:07;;;;;;;21.45;12.65;;;;;;;13.42;67.83;98843.41;5157096;28;20065;-69
2022/09/24 00:35:59;;;;;;;23.35;13.13;;;;;;;13.44;67.78;98826.25;5179565;28;20108;-69
2022/09/24 00:38:51;;;;;;;25.45;13.13;;;;;;;13.60;67.47;98836.91;5175471;28;20108;-70
2022/09/24 00:41:44;;;;;;;18.75;12.77;;;;;;;13.59;67.91;98829.91;5174865;28;20041;-69
2022/09/24 00:44:49;;;;;;;21.48;12.35;;;;;;;13.48;67.83;98819.59;5162645;28;20258;-69
2022/09/24 00:47:41;;;;;;;22.52;12.57;;;;;;;13.56;67.38;98819.59;5161454;28;20069;-70
2022/09/24 00:50:33;;;;;;;18.15;12.63;;;;;;;13.45;67.90;98833.25;5177731;28;20060;-70
2022/09/24 00:53:27;;;;;;;20.25;13.02;;;;;;;13.63;67.37;98839.22;5162121;28;20057;-69
2022/09/24 00:56:18;;;;;;;;;;;;;;;13.56;67.87;98830.25;5166102;28;20057;-70
2022/09/24 00:59:13;;;;;;;20.23;12.35;;;;;;;13.72;67.27;98821.41;5156693;28;19933;-70
2022/09/24 01:02:04;;;;;;;21.92;13.02;;;;;;;13.73;67.66;98809.75;5160599;28;20193;-69
2022/09/24 01:04:54;;;;;;;17.30;12.02;;;;;;;13.60;67.66;98810.25;5162201;28;20527;-69
2022/09/24 01:07:48;;;;;;;23.00;11.68;;;;;;;13.35;67.49;98772.16;5175705;28;20549;-69
2022/09/24 01:11:06;;;;;;;20.05;12.25;;;;;;;13.42;67.47;98798.97;5177395;28;20429;-69
2022/09/24 01:14:09;;;;;;;17.50;12.15;;;;;;;13.39;67.71;98799.28;5166592;28;20448;-69
2022/09/24 01:17:11;;;;;;;18.17;11.70;;;;;;;13.38;67.63;98800.31;5161518;28;20046;-69
2022/09/24 01:20:35;;;;;;;19.67;12.60;;;;;;;13.34;67.74;98793.63;5147392;28;20656;-68
2022/09/24 01:23:34;;;;;;;18.85;11.98;;;;;;;13.21;69.26;98793.25;5146812;28;20065;-68
2022/09/24 01:26:46;;;;;;;18.08;11.82;;;;;;;13.29;67.76;98795.97;5147395;28;20064;-69
2022/09/24 01:30:04;;;;;;;16.65;11.32;;;;;;;13.25;68.14;98784.81;5189965;28;20046;-70
2022/09/24 01:32:59;;;;;;;19.65;12.20;;;;;;;13.18;68.40;98767.81;5161557;28;20050;-69
2022/09/24 01:35:54;;;;;;;16.23;11.85;;;;;;;13.20;67.68;98767.63;5147535;28;20054;-69
2022/09/24 01:38:48;;;;;;;23.50;12.15;;;;;;;13.35;68.35;98769.50;5165056;28;20057;-70
2022/09/24 01:41:41;;;;;;;16.95;11.05;;;;;;;13.32;67.51;98777.00;5167580;28;20069;-70
2022/09/24 01:44:33;;;;;;;17.70;11.53;;;;;;;13.22;67.78;98766.47;5191883;28;20199;-69
2022/09/24 01:47:39;;;;;;;20.10;11.70;;;;;;;13.32;67.65;98772.50;5159083;28;20069;-69
2022/09/24 01:50:34;;;;;;;18.85;11.50;;;;;;;13.07;68.56;98765.47;5150809;28;20238;-69
2022/09/24 01:53:33;;;;;;;15.75;11.20;;;;;;;12.98;67.74;98766.44;5165097;28;20057;-68
2022/09/24 01:56:37;;;;;;;17.45;11.20;;;;;;;12.91;67.78;98764.47;5183087;28;20057;-69
2022/09/24 01:59:41;;;;;;;20.10;11.70;;;;;;;12.95;67.56;98764.97;5189691;28;20061;-68
2022/09/24 02:02:47;;;;;;;21.98;11.85;;;;;;;12.97;67.56;98764.78;5181767;28;20674;-70
2022/09/24 02:05:43;;;;;;;21.58;11.15;;;;;;;12.86;68.05;98760.63;5165454;28;20072;-69
2022/09/24 02:08:38;;;;;;;16.77;11.73;;;;;;;12.88;67.58;98747.97;5166546;28;20436;-69
2022/09/24 02:11:31;;;;;;;16.30;10.70;;;;;;;12.96;67.84;98757.81;5159293;28;20135;-69
2022/09/24 02:14:22;;;;;;;19.10;12.02;;;;;;;12.79;67.37;98748.97;5186451;28;20053;-70
2022/09/24 02:17:14;;;;;;;16.05;11.38;;;;;;;12.78;68.13;98748.16;5165474;28;20056;-69
2022/09/24 02:20:10;;;;;;;19.92;11.20;;;;;;;12.82;68.15;98746.00;5179036;28;20092;-69
2022/09/24 02:23:03;;;;;;;18.92;11.40;;;;;;;12.86;67.98;98750.81;5179192;28;20140;-69
2022/09/24 02:25:58;;;;;;;20.73;12.05;;;;;;;12.76;67.35;98730.69;5172596;28;20065;-69
2022/09/24 02:28:48;;;;;;;20.33;11.88;;;;;;;12.67;67.30;98745.78;5185961;28;20445;-68
2022/09/24 02:31:46;;;;;;;17.92;11.05;;;;;;;12.57;68.03;98748.59;5168848;28;20056;-69
2022/09/24 02:34:47;;;;;;;17.95;11.48;;;;;;;12.54;67.94;98738.25;5185113;28;20534;-69
2022/09/24 02:37:41;;;;;;;17.45;11.07;;;;;;;12.48;68.52;98754.03;5164265;28;20532;-69
2022/09/24 02:40:33;;;;;;;16.15;11.88;;;;;;;12.72;69.34;98750.63;5149889;28;20444;-69
2022/09/24 02:43:24;;;;;;;19.92;11.35;;;;;;;12.76;68.82;98747.47;5182402;28;20622;-69
2022/09/24 02:46:15;;;;;;;19.88;12.65;;;;;;;12.91;68.49;98729.00;5170068;28;20424;-69
2022/09/24 02:49:05;;;;;;;19.50;11.98;;;;;;;12.77;69.30;98713.72;5168656;28;20236;-70
2022/09/24 02:51:55;;;;;;;15.90;11.77;;;;;;;12.73;69.21;98725.69;5155340;28;20049;-69
2022/09/24 02:54:45;;;;;;;18.88;12.00;;;;;;;12.62;69.34;98725.00;5171374;28;20432;-69
2022/09/24 02:57:35;;;;;;;19.50;11.98;;;;;;;12.63;68.38;98731.97;5185469;28;20052;-69
2022/09/24 03:00:25;;;;;;;20.63;11.82;;;;;;;12.61;68.65;98733.97;5164019;28;20096;-68
2022/09/24 03:03:16;;;;;;;23.25;12.10;;;;;;;12.70;68.12;98754.25;5164806;28;20416;-68
2022/09/24 03:06:06;;;;;;;17.52;11.45;;;;;;;12.73;68.85;98753.13;5164465;28;20417;-69
2022/09/24 03:08:56;;;;;;;16.25;11.50;;;;;;;12.72;68.82;98750.63;5178306;28;20100;-68
2022/09/24 03:11:47;;;;;;;16.35;11.65;;;;;;;12.88;69.18;98745.31;5179420;28;20060;-69
2022/09/24 03:14:37;;;;;;;16.17;11.10;;;;;;;12.85;68.49;98740.34;5180484;28;20072;-69
2022/09/24 03:17:27;;;;;;;22.08;12.10;;;;;;;13.02;69.32;98725.22;5170630;28;20077;-69
2022/09/24 03:20:17;;;;;;;19.35;11.98;;;;;;;13.30;68.65;98728.38;5175786;28;20505;-70
2022/09/24 03:23:07;;;;;;;18.77;12.48;;;;;;;13.09;69.14;98723.56;5177973;28;20527;-70
2022/09/24 03:25:57;;;;;;;22.02;12.70;;;;;;;12.99;69.18;98731.69;5148655;28;20516;-69
2022/09/24 03:28:48;;;;;;;24.67;12.52;;;;;;;12.90;69.10;98722.88;5163664;28;20056;-69
2022/09/24 03:31:38;;;;;;;18.52;12.40;;;;;;;13.14;68.96;98724.72;5167378;28;20615;-70
2022/09/24 03:34:28;;;;;;;19.60;12.52;;;;;;;12.91;68.57;98708.59;5149110;28;20054;-70
2022/09/24 03:37:18;;;;;;;17.80;11.98;;;;;;;13.03;68.70;98714.38;5178544;28;20088;-70
2022/09/24 03:40:08;;;;;;;19.63;12.80;;;;;;;12.93;68.68;98711.88;5177890;28;20531;-69
2022/09/24 03:42:59;;;;;;;21.67;13.20;;;;;;;13.09;68.71;98710.25;5166047;28;20073;-69
2022/09/24 03:45:49;;;;;;;26.90;13.55;;;;;;;12.97;68.66;98712.38;5183383;28;20076;-70
2022/09/24 03:48:39;;;;;;;24.30;12.68;;;;;;;12.89;68.76;98712.41;5174932;28;20061;-70
2022/09/24 03:51:30;;;;;;;25.25;13.40;;;;;;;12.91;69.27;98719.22;5165172;28;20077;-68
2022/09/24 03:54:20;;;;;;;19.15;12.82;;;;;;;13.14;68.82;98713.22;5163320;28;20104;-69
2022/09/24 03:57:13;;;;;;;23.95;13.05;;;;;;;13.00;68.63;98709.41;5162079;28;20089;-70
2022/09/24 04:00:04;;;;;;;21.88;12.40;;;;;;;13.01;68.51;98713.72;5179761;28;20054;-69
2022/09/24 04:02:55;;;;;;;26.48;13.65;;;;;;;12.93;69.18;98706.56;5147866;28;20189;-70
2022/09/24 04:05:46;;;;;;;23.92;13.27;;;;;;;13.02;68.96;98712.75;5180955;28;20054;-70
2022/09/24 04:08:36;;;;;;;19.67;12.57;;;;;;;13.09;68.50;98708.41;5175156;28;20535;-68
2022/09/24 04:11:26;;;;;;;20.80;13.32;;;;;;;13.05;68.58;98704.41;5177874;28;20065;-67
2022/09/24 04:14:16;;;;;;;19.73;12.93;;;;;;;12.99;68.49;98709.56;5174516;28;20092;-68
2022/09/24 04:17:08;;;;;;;18.38;12.25;;;;;;;12.78;69.59;98696.75;5175225;28;20064;-67
2022/09/24 04:19:58;;;;;;;19.98;12.65;;;;;;;12.89;69.80;98712.41;5166673;28;20057;-69
2022/09/24 04:22:49;;;;;;;18.80;11.85;;;;;;;12.89;68.39;98696.44;5180315;28;20151;-69
2022/09/24 04:25:39;;;;;;;20.83;11.93;;;;;;;12.99;68.81;98701.59;5180127;28;20077;-67
2022/09/24 04:28:30;;;;;;;15.55;11.05;;;;;;;12.98;68.47;98698.09;5190007;28;20443;-70
2022/09/24 04:31:20;;;;;;;17.25;10.68;;;;;;;12.99;68.47;98673.16;5181808;28;20424;-68
2022/09/24 04:34:10;;;;;;;17.42;11.18;;;;;;;13.14;68.08;98686.59;5163230;28;20049;-70
2022/09/24 04:37:01;;;;;;;17.10;10.77;;;;;;;13.04;69.06;98694.75;5172540;28;20084;-69
2022/09/24 04:39:51;;;;;;;17.42;11.18;;;;;;;12.91;69.38;98694.41;5181615;28;20284;-69
2022/09/24 04:42:43;;;;;;;16.92;11.23;;;;;;;13.17;68.70;98702.25;5172783;28;20050;-70
2022/09/24 04:45:33;;;;;;;17.77;11.50;;;;;;;13.10;68.13;98659.47;5184642;28;20626;-70
2022/09/24 04:48:24;;;;;;;17.10;11.27;;;;;;;13.24;68.67;98676.63;5166857;28;20111;-69
2022/09/24 04:51:16;;;;;;;16.98;11.20;;;;;;;13.17;68.01;98671.13;5162185;23;20579;-89
2022/09/24 04:54:08;;;;;;;16.48;11.75;;;;;;;13.17;68.90;98697.75;5156434;28;20050;-88
2022/09/24 04:56:58;;;;;;;19.02;11.27;;;;;;;13.03;68.92;98676.31;5128487;28;20367;-88
2022/09/24 04:59:47;;;;;;;18.00;11.27;;;;;;;12.84;69.23;98672.13;5143229;28;20556;-90
2022/09/24 05:02:38;;;;;;;17.08;10.98;;;;;;;12.95;68.42;98671.81;5125326;28;20069;-89
2022/09/24 05:05:28;;;;;;;18.40;11.52;;;;;;;13.04;69.14;98692.09;5181850;23;20108;-71
2022/09/24 05:08:18;;;;;;;18.13;11.23;;;;;;;13.01;69.58;98672.97;5163123;28;20042;-72
2022/09/24 05:11:08;;;;;;;19.88;11.75;;;;;;;12.92;68.04;98651.69;5166507;28;20431;-71
2022/09/24 05:13:58;;;;;;;15.45;11.20;;;;;;;13.19;68.65;98681.63;5146559;28;20061;-72
2022/09/24 05:16:48;;;;;;;15.75;11.48;;;;;;;13.20;68.97;98685.09;5168208;28;20219;-73
2022/09/24 05:19:38;;;;;;;18.80;11.48;;;;;;;13.13;68.67;98690.28;5178386;28;20124;-72
2022/09/24 05:22:30;;;;;;;17.88;11.70;;;;;;;13.05;68.97;98687.63;5170988;28;20495;-72
2022/09/24 05:25:21;;;;;;;19.38;11.25;;;;;;;13.02;68.79;98670.16;5164013;28;20448;-72
2022/09/24 05:28:11;;;;;;;19.05;11.05;;;;;;;13.02;68.10;98678.13;5169091;28;20056;-72
2022/09/24 05:31:01;;;;;;;18.00;10.73;;;;;;;13.04;68.83;98694.75;5155081;28;20579;-72
2022/09/24 05:33:51;;;;;;;14.18;10.25;;;;;;;13.11;68.49;98694.91;5150033;28;20068;-72
2022/09/24 05:36:42;;;;;;;17.38;11.75;;;;;;;13.11;68.73;98693.13;5171461;28;20287;-73
2022/09/24 05:39:35;;;;;;;17.73;11.93;;;;;;;13.04;68.55;98702.72;5162971;28;20117;-73
2022/09/24 05:42:25;;;;;;;15.77;10.85;;;;;;;13.09;68.83;98707.59;5166756;28;20415;-72
2022/09/24 05:45:16;;;;;;;14.80;10.65;;;;;;;13.00;68.21;98692.59;5176888;28;20138;-73
2022/09/24 05:48:07;;;;;;;14.75;10.68;;;;;;;13.15;68.30;98697.09;5147989;28;20424;-73
2022/09/24 05:50:59;;;;;;;17.48;11.23;;;;;;;13.13;68.39;98708.91;5162780;28;20422;-72
2022/09/24 05:53:50;;;;;;;16.30;11.00;;;;;;;13.02;68.75;98695.94;5178933;28;20056;-73
2022/09/24 05:56:40;;;;;;;17.85;11.73;;;;;;;13.20;68.79;98711.72;5171180;28;20116;-73
2022/09/24 05:59:31;;;;;;;17.40;11.10;;;;;;;13.22;68.75;98717.72;5152181;28;20054;-73
2022/09/24 06:02:21;;;;;;;15.55;10.65;;;;;;;13.26;68.48;98719.09;5138453;28;20053;-73
2022/09/24 06:05:12;;;;;;;22.25;11.73;;;;;;;13.33;69.27;98723.56;5181398;28;20056;-73
2022/09/24 06:08:03;;;;;;;16.00;11.13;;;;;;;13.46;68.82;98709.72;5147091;28;20100;-73
2022/09/24 06:10:57;;;;;;;17.65;12.07;;;;;;;13.56;68.28;98715.69;5172540;28;20579;-73
2022/09/24 06:13:48;;;;;;;19.92;11.98;;;;;;;13.50;68.53;98719.03;5163438;28;20053;-72
2022/09/24 06:16:38;;;;;;;22.33;11.98;;;;;;;13.67;68.24;98719.00;5144153;28;20188;-73
2022/09/24 06:19:29;;;;;;;19.90;11.98;;;;;;;13.71;68.20;98723.84;5160420;28;20412;-73
2022/09/24 06:22:20;;;;;;;20.08;12.20;;;;;;;13.68;68.25;98712.69;5160634;28;20541;-73
2022/09/24 06:25:16;;;;;;;18.88;11.93;;;;;;;13.69;67.72;98707.19;5147171;28;20481;-73
2022/09/24 06:28:07;;;;;;;16.50;11.80;;;;;;;13.67;68.05;98705.69;5164021;28;20523;-73
2022/09/24 06:30:59;;;;;;;18.58;11.02;;;;;;;13.60;68.26;98708.19;5164430;28;20169;-72
2022/09/24 06:33:49;;;;;;;20.00;12.25;;;;;;;13.60;68.70;98709.03;5150060;28;20508;-73
2022/09/24 06:36:39;;;;;;;19.50;11.82;;;;;;;13.78;68.17;98729.31;5164727;28;20116;-73
2022/09/24 06:39:28;;;;;;;25.35;11.93;;;;;;;13.58;68.67;98732.34;5182254;28;20357;-73
2022/09/24 06:42:19;;;;;;;19.17;11.80;;;;;;;13.75;68.46;98748.31;5182765;28;20061;-73
2022/09/24 06:45:10;;;;;;;21.92;12.38;;;;;;;13.81;68.27;98743.13;5169982;28;20508;-72
2022/09/24 06:48:02;;;;;;;20.25;11.65;;;;;;;13.80;68.29;98757.44;5122272;28;20054;-73
2022/09/24 06:50:53;;;;;;;22.42;12.48;;;;;;;13.84;68.77;98745.47;5161317;28;20090;-73
2022/09/24 06:53:43;;;;;;;21.75;13.13;;;;;;;14.20;68.34;98749.50;5152824;28;20120;-73
2022/09/24 06:56:33;;;;;;;18.67;12.63;;;;;;;14.17;67.85;98739.16;5170473;28;20480;-73
2022/09/24 06:59:23;;;;;;;22.00;12.50;;;;;;;14.08;68.52;98743.72;5173930;28;20089;-73
2022/09/24 07:02:13;;;;;;;20.58;11.82;;;;;;;14.38;67.37;98742.09;5152231;28;20062;-73
2022/09/24 07:05:04;;;;;;;19.65;12.27;;;;;;;14.53;66.77;98748.34;5176833;28;20053;-73
2022/09/24 07:07:54;;;;;;;17.60;12.43;;;;;;;14.60;66.54;98747.66;5165496;28;20069;-72
2022/09/24 07:10:47;;;;;;;20.10;12.38;;;;;;;14.64;66.36;98754.34;5177791;28;20064;-73
2022/09/24 07:13:37;;;;;;;15.10;11.60;;;;;;;14.54;66.24;98741.22;5163832;28;20465;-73
2022/09/24 07:16:27;;;;;;;19.42;11.45;;;;;;;14.51;66.64;98750.38;5162700;28;20065;-73
2022/09/24 07:19:17;;;;;;;16.88;11.90;;;;;;;14.71;66.19;98740.09;5180454;28;20054;-73
2022/09/24 07:22:07;;;;;;;18.52;11.32;;;;;;;14.80;66.33;98748.88;5158539;28;20053;-73
2022/09/24 07:24:58;;;;;;;21.92;12.32;;;;;;;14.95;65.98;98747.09;5183460;28;20061;-76
2022/09/24 07:27:48;;;;;;;15.93;11.68;;;;;;;14.82;66.23;98762.06;5134479;28;20051;-70
2022/09/24 07:30:39;;;;;;;23.63;13.45;;;;;;;14.84;66.85;98771.56;5168811;28;20058;-74
2022/09/24 07:33:30;;;;;;;19.17;13.88;;;;;;;15.03;65.17;98770.25;5181421;28;20143;-73
2022/09/24 07:36:21;;;;;;;19.77;12.38;;;;;;;15.01;65.85;98780.28;5154814;28;20123;-74
2022/09/24 07:39:12;;;;;;;19.17;12.75;;;;;;;15.06;65.76;98779.75;5138911;28;20444;-72
2022/09/24 07:42:03;;;;;;;18.45;11.95;;;;;;;14.92;65.84;98781.34;5148250;28;20115;-72
2022/09/24 07:44:55;;;;;;;16.95;12.25;;;;;;;15.13;65.07;98784.22;5172912;28;20057;-70
2022/09/24 07:47:45;;;;;;;21.77;12.23;;;;;;;15.12;66.40;98773.69;5162535;28;20578;-71
2022/09/24 07:50:38;;;;;;;21.00;12.50;;;;;;;15.23;66.07;98786.63;5161449;28;20057;-72
2022/09/24 07:53:28;;;;;;;20.30;13.47;;;;;;;15.25;64.61;98781.94;5159309;28;20057;-70
2022/09/24 07:56:18;;;;;;;18.23;13.02;;;;;;;15.35;65.40;98790.53;5155765;28;20069;-72
2022/09/24 07:59:10;;;;;;;22.58;12.50;;;;;;;15.19;65.36;98764.78;5157659;28;20415;-72
2022/09/24 08:01:59;;;;;;;21.75;12.35;;;;;;;15.36;65.82;98788.69;5132068;28;20046;-71
2022/09/24 08:04:50;;;;;;;19.67;13.43;;;;;;;15.44;64.50;98777.94;5173735;28;20064;-72
2022/09/24 08:07:41;;;;;;;19.30;12.13;;;;;;;15.55;64.03;98784.69;5181164;28;20107;-72
2022/09/24 08:10:31;;;;;;;20.98;12.85;;;;;;;15.54;64.66;98786.53;5162824;28;20408;-71
2022/09/24 08:13:21;;;;;;;17.00;12.02;;;;;;;15.58;64.23;98789.69;5168587;28;20058;-72
2022/09/24 08:16:20;;;;;;;21.80;13.77;;;;;;;15.74;63.75;98790.38;5161951;28;20046;-73
2022/09/24 08:19:12;;;;;;;26.17;13.63;;;;;;;15.77;63.26;98789.19;5162406;28;20674;-74
2022/09/24 08:22:04;;;;;;;24.27;13.23;;;;;;;15.70;63.56;98793.63;5153071;28;20049;-73
2022/09/24 08:24:56;;;;;;;17.92;13.15;;;;;;;15.81;63.99;98790.50;5128585;28;20413;-73
2022/09/24 08:27:46;;;;;;;21.25;13.73;;;;;;;15.62;64.23;98788.31;5178548;28;20061;-73
2022/09/24 08:30:38;;;;;;;18.35;13.60;;;;;;;15.65;64.04;98746.00;5146023;28;20057;-73
2022/09/24 08:33:31;;;;;;;21.23;13.05;;;;;;;15.88;63.41;98780.72;5161673;28;20054;-74
2022/09/24 08:36:21;;;;;;;19.73;13.30;;;;;;;15.82;64.13;98770.75;5144959;28;20262;-74
2022/09/24 08:39:14;;;;;;;18.98;13.05;;;;;;;16.25;61.79;98795.03;5159621;28;20053;-74
2022/09/24 08:42:05;;;;;;;23.70;14.07;;;;;;;16.01;62.84;98790.78;5156719;28;20310;-74
2022/09/24 08:48:14;;;;;;;20.10;13.48;;;;;;;16.18;62.49;98780.72;5160727;28;20073;-73
2022/09/24 08:51:10;;;;;;;22.55;13.60;;;;;;;16.48;61.87;98797.59;5180632;28;20084;-75
2022/09/24 08:54:07;;;;;;;23.60;12.65;;;;;;;16.39;62.45;98798.69;5164812;28;20043;-74
2022/09/24 08:57:01;;;;;;;23.83;14.63;;;;;;;16.82;61.36;98783.63;5160810;28;20061;-74
2022/09/24 08:59:52;;;;;;;26.90;14.55;;;;;;;17.04;61.09;98783.66;5156651;28;20528;-74
2022/09/24 09:03:00;;;;;;;19.40;13.43;;;;;;;17.28;59.51;98793.97;5159345;28;20508;-73
2022/09/24 09:06:28;;;;;;;17.55;13.25;;;;;;;17.08;60.66;98787.59;5158993;28;20109;-76
2022/09/24 09:09:40;;;;;;;19.80;12.73;;;;;;;17.41;60.06;98789.78;5161720;28;20081;-75
2022/09/24 09:12:40;;;;;;;145.73;28.73;;;;;;;17.50;61.07;98785.94;5169457;28;20512;-75
2022/09/24 09:15:39;;;;;;;341.02;57.47;;;;;;;17.92;60.74;98793.13;5169239;28;20626;-74
2022/09/24 09:18:36;;;;;;;22.73;13.43;;;;;;;18.28;58.08;98795.59;5181999;28;20155;-72
2022/09/24 09:21:42;;;;;;;18.40;12.98;;;;;;;18.67;55.78;98799.47;5160392;28;20052;-71
2022/09/24 09:24:49;;;;;;;22.65;12.60;;;;;;;18.71;56.20;98795.38;5164299;28;20038;-72
2022/09/24 09:27:39;;;;;;;21.83;12.55;;;;;;;18.42;56.99;98803.72;5155451;28;20060;-72
2022/09/24 09:30:42;;;;;;;22.10;12.68;;;;;;;18.35;56.17;98789.44;5178123;28;20454;-72
2022/09/24 09:34:00;;;;;;;22.60;13.02;;;;;;;18.60;57.78;98798.63;5147159;28;20381;-71
2022/09/24 09:37:21;;;;;;;20.27;12.52;;;;;;;18.97;55.03;98796.50;5173801;28;20133;-71
2022/09/24 09:40:40;;;;;;;19.13;11.57;;;;;;;19.07;54.05;98798.81;5172274;28;20108;-70
2022/09/24 09:43:31;;;;;;;19.58;11.85;;;;;;;19.22;54.62;98796.78;5175936;28;20089;-70
2022/09/24 09:46:36;;;;;;;16.40;11.65;;;;;;;19.12;54.08;98774.84;5158340;28;20697;-70
2022/09/24 09:49:34;;;;;;;17.90;11.35;;;;;;;19.13;54.04;98787.25;5151495;28;20093;-71
2022/09/24 09:52:28;;;;;;;16.35;10.80;;;;;;;19.12;53.41;98783.75;5162215;28;20062;-71
2022/09/24 09:55:25;;;;;;;19.95;10.95;;;;;;;19.06;53.04;98775.66;5163835;28;20509;-70
2022/09/24 09:58:23;;;;;;;16.73;11.60;;;;;;;18.58;55.43;98786.47;5175601;28;20136;-70
2022/09/24 10:01:17;;;;;;;19.77;11.73;;;;;;;18.77;54.45;98778.50;5178230;28;20068;-71
2022/09/24 10:04:40;;;;;;;21.13;12.02;;;;;;;18.77;55.36;98783.03;5176581;28;20058;-70
2022/09/24 10:07:30;;;;;;;19.15;12.10;;;;;;;18.69;57.46;98767.91;5181645;28;20416;-70
2022/09/24 10:10:23;;;;;;;19.13;12.18;;;;;;;18.82;55.08;98771.69;5165011;28;20053;-69
2022/09/24 10:13:13;;;;;;;20.27;12.20;;;;;;;18.84;56.35;98753.50;5171827;28;20161;-70
2022/09/24 10:16:07;;;;;;;18.63;12.60;;;;;;;19.07;57.62;98772.75;5157566;28;20060;-70
2022/09/24 10:18:57;;;;;;;;;;;;;;;19.09;56.46;98772.56;5185772;28;20054;-70
2022/09/24 10:21:49;;;;;;;20.88;12.30;;;;;;;19.12;56.64;98773.00;5167911;28;19944;-70
2022/09/24 10:24:42;;;;;;;18.50;11.45;;;;;;;19.31;56.64;98778.63;5174804;28;20057;-70
2022/09/24 10:27:35;;;;;;;21.40;11.98;;;;;;;19.23;54.81;98769.69;5162005;28;20504;-70
2022/09/24 10:30:34;;;;;;;16.85;10.68;;;;;;;19.35;57.40;98774.47;5175801;28;20065;-71
2022/09/24 10:33:24;;;;;;;16.20;10.48;;;;;;;19.25;53.60;98775.69;5164628;28;20441;-70
2022/09/24 10:36:25;;;;;;;20.23;10.88;;;;;;;19.15;55.92;98777.16;5163755;28;20054;-70
2022/09/24 10:39:15;;;;;;;17.77;9.82;;;;;;;19.16;54.52;98776.91;5175731;28;20053;-70
2022/09/24 10:42:21;;;;;;;14.63;9.63;;;;;;;19.07;55.18;98782.69;5175943;28;20088;-70
2022/09/24 10:45:14;;;;;;;14.45;10.02;;;;;;;18.44;55.92;98772.97;5185186;28;20046;-71
2022/09/24 10:48:25;;;;;;;14.55;9.30;;;;;;;18.96;56.94;98786.81;5167551;28;20054;-70
2022/09/24 10:51:15;;;;;;;15.70;8.90;;;;;;;18.88;56.17;98776.25;5175042;22;20504;-68
2022/09/24 10:54:34;;;;;;;13.63;8.90;;;;;;;19.07;56.63;98778.13;5161620;28;20077;-68
2022/09/24 10:57:38;;;;;;;16.40;9.75;;;;;;;18.93;55.88;98779.16;5154636;28;20050;-68
2022/09/24 11:00:36;;;;;;;;;;;;;;;18.94;55.52;98770.91;5163772;28;20140;-68
2022/09/24 11:03:45;;;;;;;14.77;8.93;;;;;;;19.23;56.15;98771.56;5143105;28;20411;-68
2022/09/24 11:06:52;;;;;;;14.77;9.15;;;;;;;19.32;53.50;98764.13;5142412;28;20086;-68
2022/09/24 11:10:11;;;;;;;15.90;9.15;;;;;;;19.21;54.07;98762.88;5143403;28;20083;-68
2022/09/24 11:13:19;;;;;;;13.13;9.10;;;;;;;19.50;54.40;98761.63;5143424;28;20106;-68
2022/09/24 11:16:22;;;;;;;17.25;9.80;;;;;;;19.54;54.32;98756.72;5138067;28;20138;-68
2022/09/24 11:19:31;;;;;;;16.33;10.30;;;;;;;19.67;53.95;98759.41;5156834;28;20170;-68
2022/09/24 11:22:31;;;;;;;19.35;10.75;;;;;;;19.75;55.18;98761.88;5142814;28;20144;-68
2022/09/24 11:25:30;;;;;;;13.73;11.10;;;;;;;19.92;55.38;98756.88;5131365;28;20042;-68
2022/09/24 11:28:55;;;;;;;15.93;10.93;;;;;;;19.91;53.47;98753.38;5144125;28;20142;-68
2022/09/24 11:32:07;;;;;;;13.65;10.27;;;;;;;19.74;52.84;98757.53;5133758;28;20070;-68
2022/09/24 11:35:35;;;;;;;17.60;9.75;;;;;;;19.52;54.36;98758.75;5143954;28;20125;-68
2022/09/24 11:38:26;;;;;;;17.50;10.25;;;;;;;19.64;54.61;98751.75;5143680;28;20153;-68
2022/09/24 11:41:31;;;;;;;16.40;9.90;;;;;;;19.85;53.21;98751.53;5129920;28;20061;-68
2022/09/24 11:44:40;;;;;;;17.50;10.75;;;;;;;19.69;53.49;98747.41;5144083;28;20061;-68
2022/09/24 11:47:53;;;;;;;13.95;9.95;;;;;;;19.68;53.06;98745.75;5132363;28;20432;-68
2022/09/24 11:50:51;;;;;;;17.60;10.00;;;;;;;19.72;54.35;98748.84;5143188;28;20129;-68
2022/09/24 11:53:50;;;;;;;13.07;9.68;;;;;;;19.83;53.92;98737.44;5143355;28;20501;-68
2022/09/24 11:56:46;;;;;;;12.82;9.52;;;;;;;19.88;53.38;98737.66;5138685;28;20074;-68
2022/09/24 11:59:50;;;;;;;13.52;9.18;;;;;;;19.81;54.47;98731.47;5143219;28;20060;-68
2022/09/24 12:02:46;;;;;;;12.27;9.38;;;;;;;19.92;53.75;98735.34;5141954;28;20114;-68
2022/09/24 12:05:43;;;;;;;17.88;8.95;;;;;;;19.63;53.96;98726.69;5130515;28;20058;-68
2022/09/24 12:08:51;;;;;;;20.05;12.10;;;;;;;19.73;55.05;98728.97;5143314;28;20531;-69
2022/09/24 12:11:48;;;;;;;10.27;7.53;;;;;;;19.80;55.16;98723.56;5129618;28;20050;-68
2022/09/24 12:15:03;;;;;;;10.70;6.38;;;;;;;19.79;57.24;98736.22;5137356;28;20576;-68
2022/09/24 12:18:00;;;;;;;10.23;6.28;;;;;;;19.74;57.30;98736.03;5131565;28;20047;-68
2022/09/24 12:20:55;;;;;;;8.30;5.32;;;;;;;19.33;58.47;98734.34;5141946;28;20061;-68
2022/09/24 12:23:50;;;;;;;12.13;5.85;;;;;;;19.28;58.62;98722.56;5129887;28;20505;-68
2022/09/24 12:26:41;;;;;;;12.63;7.53;;;;;;;19.23;59.46;98725.88;5141403;28;20061;-69
2022/09/24 12:33:11;;;;;;;11.23;5.68;;;;;;;19.09;59.67;98730.41;5141212;28;20136;-70
2022/09/24 12:36:16;;;;;;;9.07;5.72;;;;;;;19.03;59.43;98728.53;5142584;28;20065;-69
2022/09/24 12:39:16;;;;;;;7.93;5.82;;;;;;;18.93;61.05;98725.41;5141355;28;20051;-69
2022/09/24 12:42:10;;;;;;;9.77;5.75;;;;;;;18.89;63.85;98726.88;5140950;28;20205;-69
2022/09/24 12:45:01;;;;;;;9.57;5.88;;;;;;;18.91;64.18;98714.88;5142173;28;20051;-67
2022/09/24 12:47:56;;;;;;;12.75;9.77;;;;;;;18.87;64.20;98715.47;5129354;28;20074;-68
2022/09/24 12:50:57;;;;;;;13.48;9.00;;;;;;;18.92;63.77;98731.84;5141752;28;20201;-69
2022/09/24 12:54:27;;;;;;;19.63;10.82;;;;;;;18.66;63.98;98717.28;5127825;28;20490;-67
2022/09/24 12:57:23;;;;;;;16.77;11.20;;;;;;;18.41;64.17;98718.84;5137614;28;20051;-70
2022/09/24 13:00:31;;;;;;;20.15;10.93;;;;;;;18.36;64.29;98726.69;5141394;28;20163;-69
2022/09/24 13:03:41;;;;;;;19.17;12.10;;;;;;;18.35;65.62;98720.47;5141506;28;20478;-68
2022/09/24 13:06:36;;;;;;;19.60;12.93;;;;;;;18.44;66.60;98710.38;5141703;28;20517;-68
2022/09/24 13:09:39;;;;;;;27.77;13.45;;;;;;;18.51;65.92;98716.63;5141512;28;20051;-70
2022/09/24 13:12:32;;;;;;;18.40;13.20;;;;;;;18.51;65.98;98722.00;5140105;28;20081;-69
2022/09/24 13:15:34;;;;;;;23.48;13.57;;;;;;;18.28;65.63;98714.25;5135786;28;20178;-69
2022/09/24 13:18:25;;;;;;;21.02;13.27;;;;;;;18.20;66.53;98712.56;5142161;28;20077;-70
2022/09/24 13:21:23;;;;;;;20.70;13.55;;;;;;;18.10;66.74;98684.44;5153909;28;20043;-70
2022/09/24 13:24:36;;;;;;;20.65;13.13;;;;;;;18.20;65.72;98707.19;5140841;28;20877;-69
2022/09/24 13:27:29;;;;;;;22.80;13.65;;;;;;;18.22;66.47;98709.69;5128914;28;20623;-69
2022/09/24 13:30:21;;;;;;;24.30;14.40;;;;;;;18.26;65.68;98713.63;5141136;28;20057;-69
2022/09/24 13:33:22;;;;;;;20.15;14.32;;;;;;;18.51;65.62;98697.84;5125407;28;20050;-68
2022/09/24 13:36:35;;;;;;;24.88;15.07;;;;;;;18.61;67.92;98698.28;5143031;28;20049;-68
2022/09/24 13:39:35;;;;;;;23.95;14.52;;;;;;;18.67;66.33;98696.63;5130071;28;20042;-67